LZIB/BTS METAR and TAF weather

Enter ICAO airport designator
Station Type Date Time Source
LZIB METAR 2020/01/18 13:00 UTC NOAA

LZIB 181300Z 06003KT 5000 BR FEW006 BKN011 OVC024 M01/M01 Q1026 R13/710195 BECMG FEW009 SCT013 OVC025


Station Type Date Time Source
LZIB Decoded METAR 2020/01/18 13:00 UTC NOAA

Bratislava Ivanka, Slovakia (LZIB) 48-12N 017-12E 142M
Jan 18, 2020 - 08:00 AM EST / 2020.01.18 1300 UTC
Wind: from the ENE (060 degrees) at 3 MPH (3 KT):0
Visibility: 3 mile(s):0
Sky conditions: overcast
Weather: mist
Temperature: 30 F (-1 C)
Dew Point: 30 F (-1 C)
Relative Humidity: 100%
Pressure (altimeter): 30.30 in. Hg (1026 hPa)
ob: LZIB 181300Z 06003KT 5000 BR FEW006 BKN011 OVC024 M01/M01 Q1026 R13/710195 BECMG FEW009 SCT013 OVC025
cycle: 13

Station Type Date Time Source
LZIB TAF 2020/01/18 13:09 UTC NOAA

TAF
AMD LZIB 181303Z 1813/1912 VRB02KT 5000 BR SCT007 OVC013
TEMPO 1813/1816 SCT010 BKN025
BECMG 1816/1818 2500 -SN BR PROB40
TEMPO 1816/1820 1200 SN BKN003 OVC008
BECMG 1900/1902 34005KT 6000 -SNRA
BECMG 1908/1910 33010KT 9999 -RA BKN020 BKN060

Example: see airport list